createdAt,value
2023-01-21T00:02:30.239Z,51.80
2023-01-21T00:05:00.295Z,50.95
2023-01-21T00:07:30.432Z,48.83
2023-01-21T00:10:00.939Z,50.97
2023-01-21T00:12:31.146Z,53.55
2023-01-21T00:15:01.655Z,54.03
2023-01-21T00:17:36.872Z,50.75
2023-01-21T00:20:07.926Z,54.15
2023-01-21T00:22:37.955Z,49.10
2023-01-21T00:25:08.144Z,51.13
2023-01-21T00:27:38.168Z,45.53
2023-01-21T00:30:08.405Z,46.55
2023-01-21T00:32:38.824Z,49.95
2023-01-21T00:35:09.602Z,50.67
2023-01-21T00:37:40.337Z,44.83
2023-01-21T00:40:11.381Z,41.38
2023-01-21T00:42:41.730Z,48.10
2023-01-21T00:45:12.543Z,45.03
2023-01-21T00:47:43.011Z,51.30
2023-01-21T00:50:14.312Z,47.45
2023-01-21T00:52:44.812Z,51.95
2023-01-21T00:55:14.882Z,65.85
2023-01-21T00:57:44.978Z,65.45
2023-01-21T01:00:16.534Z,48.97
2023-01-21T01:02:46.884Z,55.00
2023-01-21T01:05:18.021Z,59.55
2023-01-21T01:07:49.206Z,54.67
2023-01-21T01:10:19.898Z,49.92
2023-01-21T01:12:50.026Z,42.47
2023-01-21T01:15:20.611Z,46.03
2023-01-21T01:17:50.663Z,57.33
2023-01-21T01:20:20.969Z,48.90
2023-01-21T01:22:51.152Z,39.90
2023-01-21T01:25:21.315Z,33.67
2023-01-21T01:27:51.859Z,44.97
2023-01-21T01:30:22.781Z,35.97
2023-01-21T01:32:53.340Z,37.92
2023-01-21T01:35:24.544Z,42.95
2023-01-21T01:37:55.062Z,41.45
2023-01-21T01:40:25.594Z,38.65
2023-01-21T01:42:56.440Z,41.08
2023-01-21T01:45:26.870Z,40.90
2023-01-21T01:48:02.690Z,40.63
2023-01-21T01:50:38.350Z,40.70
2023-01-21T01:53:09.704Z,40.63
2023-01-21T01:55:40.177Z,45.10
2023-01-21T01:58:12.782Z,40.55
2023-01-21T02:00:43.234Z,38.15
2023-01-21T02:03:33.543Z,47.42
2023-01-21T02:06:04.647Z,38.50
2023-01-21T02:08:37.681Z,35.13
2023-01-21T02:11:21.491Z,43.03
2023-01-21T02:13:57.223Z,38.83
2023-01-21T02:16:47.794Z,44.13
2023-01-21T02:19:37.443Z,35.67
2023-01-21T02:22:27.449Z,35.67
2023-01-21T02:25:17.299Z,37.70
2023-01-21T02:28:07.244Z,40.13
2023-01-21T02:30:43.005Z,38.03
2023-01-21T02:33:33.028Z,35.70
2023-01-21T02:36:22.717Z,37.47
2023-01-21T02:39:00.136Z,34.17
2023-01-21T02:41:50.025Z,35.80
2023-01-21T02:44:40.240Z,32.22
2023-01-21T02:47:29.981Z,35.05
2023-01-21T02:50:03.857Z,40.00
2023-01-21T02:52:33.905Z,35.33
2023-01-21T02:55:05.054Z,34.75
2023-01-21T02:57:55.042Z,32.42
2023-01-21T03:00:38.874Z,37.88
2023-01-21T03:03:19.442Z,33.42
2023-01-21T03:06:09.102Z,35.58
2023-01-21T03:08:59.063Z,31.05
2023-01-21T03:11:30.284Z,35.88
2023-01-21T03:14:27.302Z,35.85
2023-01-21T03:17:06.294Z,32.75
2023-01-21T03:19:56.463Z,31.65
2023-01-21T03:22:28.975Z,32.85
2023-01-21T03:25:01.663Z,31.17
2023-01-21T03:27:33.977Z,34.55
2023-01-21T03:30:09.533Z,31.85
2023-01-21T03:32:41.861Z,30.95
2023-01-21T03:35:13.100Z,32.63
2023-01-21T03:37:46.702Z,27.77
2023-01-21T03:40:36.805Z,29.98
2023-01-21T03:43:06.948Z,31.95
2023-01-21T03:45:47.642Z,32.53
2023-01-21T03:48:21.722Z,30.30
2023-01-21T03:51:02.030Z,29.30
2023-01-21T03:53:32.186Z,31.92
2023-01-21T03:56:03.033Z,33.10
2023-01-21T03:58:33.856Z,31.40
2023-01-21T04:01:04.345Z,29.95
2023-01-21T04:03:34.557Z,28.83
2023-01-21T04:06:05.648Z,29.98
2023-01-21T04:08:35.860Z,28.95
2023-01-21T04:11:06.615Z,29.98
2023-01-21T04:13:36.999Z,29.83
2023-01-21T04:16:07.785Z,28.35
2023-01-21T04:18:38.095Z,28.00
2023-01-21T04:21:08.283Z,29.10
2023-01-21T04:23:38.541Z,28.45
2023-01-21T04:26:09.341Z,31.13
2023-01-21T04:28:39.525Z,30.08
2023-01-21T04:31:09.762Z,28.92
2023-01-21T04:33:40.059Z,27.52
2023-01-21T04:36:11.011Z,29.98
2023-01-21T04:38:41.762Z,35.70
2023-01-21T04:41:12.122Z,32.70
2023-01-21T04:43:42.207Z,37.47
2023-01-21T04:46:12.730Z,31.88
2023-01-21T04:48:42.914Z,34.05
2023-01-21T04:51:13.427Z,29.90
2023-01-21T04:53:43.636Z,28.48
2023-01-21T04:56:14.678Z,31.38
2023-01-21T04:58:45.214Z,27.08
2023-01-21T05:01:15.686Z,28.33
2023-01-21T05:03:45.931Z,27.00
2023-01-21T05:06:16.392Z,28.60
2023-01-21T05:08:46.626Z,26.17
2023-01-21T05:11:19.199Z,25.80
2023-01-21T05:13:49.749Z,23.23
2023-01-21T05:16:20.275Z,26.75
2023-01-21T05:18:50.835Z,24.90
2023-01-21T05:21:24.043Z,25.05
2023-01-21T05:23:54.574Z,26.63
2023-01-21T05:26:25.063Z,28.63
2023-01-21T05:28:55.284Z,28.02
2023-01-21T05:31:26.634Z,28.80
2023-01-21T05:33:58.959Z,26.27
2023-01-21T05:36:29.174Z,27.95
2023-01-21T05:39:00.040Z,28.25
2023-01-21T05:41:30.601Z,27.15
2023-01-21T05:44:00.790Z,25.95
2023-01-21T05:46:31.459Z,27.58
2023-01-21T05:49:01.744Z,29.67
2023-01-21T05:51:31.904Z,28.02
2023-01-21T05:54:02.286Z,27.58
2023-01-21T05:56:32.423Z,25.80
2023-01-21T05:59:02.838Z,27.52
2023-01-21T06:01:33.102Z,29.58
2023-01-21T06:04:03.536Z,28.20
2023-01-21T06:06:34.137Z,27.33
2023-01-21T06:09:04.918Z,26.50
2023-01-21T06:11:35.255Z,27.10
2023-01-21T06:14:05.614Z,26.08
2023-01-21T06:16:35.750Z,25.48
2023-01-21T06:19:06.197Z,31.83
2023-01-21T06:21:36.392Z,24.38
2023-01-21T06:24:06.826Z,28.42
2023-01-21T06:26:37.482Z,26.80
2023-01-21T06:29:07.917Z,24.73
2023-01-21T06:31:38.490Z,22.23
2023-01-21T06:34:08.886Z,24.23
2023-01-21T06:36:39.218Z,26.48
2023-01-21T06:39:11.105Z,22.90
2023-01-21T06:41:41.907Z,28.38
2023-01-21T06:44:12.042Z,24.65
2023-01-21T06:46:45.922Z,24.13
2023-01-21T06:49:22.897Z,40.38
2023-01-21T06:51:53.596Z,23.92
2023-01-21T06:54:23.902Z,23.55
2023-01-21T06:56:55.079Z,22.88
2023-01-21T06:59:25.667Z,27.48
2023-01-21T07:01:56.684Z,21.33
2023-01-21T07:04:28.211Z,26.73
2023-01-21T07:06:58.900Z,24.50
2023-01-21T07:09:29.349Z,21.85
2023-01-21T07:12:00.172Z,23.55
2023-01-21T07:14:30.407Z,23.90
2023-01-21T07:17:00.515Z,23.27
2023-01-21T07:19:30.699Z,23.98
2023-01-21T07:22:01.117Z,26.58
2023-01-21T07:24:32.687Z,24.45
2023-01-21T07:27:03.229Z,31.23
2023-01-21T07:29:34.429Z,25.08
2023-01-21T07:32:05.096Z,26.75
2023-01-21T07:34:36.293Z,25.05
2023-01-21T07:37:07.044Z,26.08
2023-01-21T07:39:37.260Z,22.02
2023-01-21T07:42:08.019Z,38.83
2023-01-21T07:44:39.590Z,24.70
2023-01-21T07:47:10.086Z,25.95
2023-01-21T07:49:41.122Z,23.15
2023-01-21T07:52:11.915Z,26.27
2023-01-21T07:54:42.734Z,24.95
2023-01-21T07:57:13.634Z,24.85
2023-01-21T07:59:44.462Z,28.10
2023-01-21T08:02:15.178Z,25.73
2023-01-21T08:04:45.885Z,24.75
2023-01-21T08:07:17.170Z,28.15
2023-01-21T08:09:48.379Z,23.30
2023-01-21T08:12:18.961Z,28.98
2023-01-21T08:14:49.187Z,49.22
2023-01-21T08:17:19.674Z,25.52
2023-01-21T08:19:50.128Z,22.77
2023-01-21T08:22:20.484Z,24.15
2023-01-21T08:24:50.969Z,21.85
2023-01-21T08:27:21.356Z,20.60
2023-01-21T08:29:51.998Z,23.73
2023-01-21T08:32:22.625Z,26.55
2023-01-21T08:34:54.168Z,24.52
2023-01-21T08:37:24.626Z,22.10
2023-01-21T08:39:55.126Z,22.80
2023-01-21T08:42:25.660Z,22.17
2023-01-21T08:44:56.183Z,25.17
2023-01-21T08:47:26.719Z,20.38
2023-01-21T08:49:57.172Z,20.58
2023-01-21T08:52:27.726Z,21.30
2023-01-21T08:54:58.197Z,21.17
2023-01-21T08:57:29.349Z,22.55
2023-01-21T08:59:59.437Z,26.98
2023-01-21T09:02:30.209Z,22.10
2023-01-21T09:05:00.849Z,24.13
2023-01-21T09:07:30.965Z,23.02
2023-01-21T09:10:01.133Z,22.52
2023-01-21T09:12:31.304Z,24.75
2023-01-21T09:15:01.482Z,22.67
2023-01-21T09:17:31.717Z,24.77
2023-01-21T09:20:02.128Z,23.73
2023-01-21T09:22:32.348Z,24.45
2023-01-21T09:25:11.616Z,20.95
2023-01-21T09:27:41.764Z,24.52
2023-01-21T09:30:12.631Z,23.80
2023-01-21T09:32:43.188Z,22.92
2023-01-21T09:35:13.519Z,23.02
2023-01-21T09:37:43.743Z,24.98
2023-01-21T09:40:19.485Z,22.95
2023-01-21T09:42:49.570Z,24.88
2023-01-21T09:45:21.323Z,22.45
2023-01-21T09:47:52.879Z,26.60
2023-01-21T09:50:24.778Z,26.58
2023-01-21T09:52:56.950Z,21.08
2023-01-21T09:55:31.281Z,23.80
2023-01-21T09:58:21.161Z,23.35
2023-01-21T10:01:00.739Z,23.20
2023-01-21T10:03:50.421Z,25.20
2023-01-21T10:06:40.137Z,23.83
2023-01-21T10:09:19.609Z,29.08
2023-01-21T10:11:58.030Z,23.67
2023-01-21T10:14:42.270Z,24.83
2023-01-21T10:17:23.069Z,26.20
2023-01-21T10:20:01.332Z,25.17
2023-01-21T10:22:31.586Z,25.80
2023-01-21T10:25:21.822Z,26.05
2023-01-21T10:27:52.271Z,29.15
2023-01-21T10:30:32.105Z,32.47
2023-01-21T10:33:02.580Z,34.83
2023-01-21T10:35:52.215Z,65.75
2023-01-21T10:38:31.262Z,56.67
2023-01-21T10:41:07.784Z,52.10
2023-01-21T10:43:46.677Z,54.83
2023-01-21T10:46:30.747Z,55.17
2023-01-21T10:49:22.373Z,61.33
2023-01-21T10:52:03.642Z,47.40
2023-01-21T10:54:53.306Z,51.33
2023-01-21T10:57:43.286Z,56.05
2023-01-21T11:00:21.250Z,59.47
2023-01-21T11:02:54.985Z,52.72
2023-01-21T11:05:25.641Z,51.38
2023-01-21T11:07:56.842Z,51.38
2023-01-21T11:10:28.296Z,53.70
2023-01-21T11:12:59.071Z,55.55
2023-01-21T11:15:33.169Z,55.63
2023-01-21T11:18:03.420Z,62.38
2023-01-21T11:20:38.140Z,51.83
2023-01-21T11:23:08.867Z,57.70
2023-01-21T11:25:45.063Z,62.58
2023-01-21T11:28:28.453Z,63.90
2023-01-21T11:31:18.616Z,64.38
2023-01-21T11:33:49.591Z,57.85
2023-01-21T11:36:21.238Z,83.32
2023-01-21T11:39:10.628Z,835.33
2023-01-21T11:41:40.972Z,467.58
2023-01-21T11:44:12.831Z,161.07
2023-01-21T11:46:44.277Z,151.38
2023-01-21T11:49:21.596Z,181.93
2023-01-21T11:51:51.812Z,141.55
2023-01-21T11:54:23.607Z,162.65
2023-01-21T11:56:58.857Z,134.75
2023-01-21T11:59:32.879Z,101.28
2023-01-21T12:02:23.982Z,129.70
2023-01-21T12:05:03.583Z,127.93
2023-01-21T12:07:36.852Z,124.80
2023-01-21T12:10:25.544Z,107.97
2023-01-21T12:13:15.428Z,106.50
2023-01-21T12:16:05.505Z,98.05
2023-01-21T12:18:55.264Z,99.38
2023-01-21T12:21:45.640Z,100.28
2023-01-21T12:24:36.149Z,130.82
2023-01-21T12:27:24.385Z,112.05
2023-01-21T12:30:06.174Z,116.88
2023-01-21T12:32:42.298Z,103.90
2023-01-21T12:35:16.747Z,90.43
2023-01-21T12:37:59.638Z,104.13
2023-01-21T12:40:42.039Z,95.90
2023-01-21T12:43:19.335Z,97.32
2023-01-21T12:45:52.132Z,91.53
2023-01-21T12:48:42.471Z,89.80
2023-01-21T12:51:25.537Z,92.97
2023-01-21T12:54:01.212Z,88.97
2023-01-21T12:56:37.650Z,97.75
2023-01-21T12:59:18.143Z,88.25
2023-01-21T13:02:08.518Z,97.38
2023-01-21T13:04:58.644Z,93.63
2023-01-21T13:07:48.732Z,88.15
2023-01-21T13:10:38.607Z,89.15
2023-01-21T13:13:28.303Z,88.50
2023-01-21T13:16:04.539Z,83.90
2023-01-21T13:18:54.620Z,88.30
2023-01-21T13:21:32.512Z,88.63
2023-01-21T13:24:22.147Z,94.65
2023-01-21T13:27:09.144Z,85.50
2023-01-21T13:29:58.863Z,81.88
2023-01-21T13:32:50.028Z,86.63
2023-01-21T13:35:39.628Z,78.32
2023-01-21T13:38:16.223Z,88.30
2023-01-21T13:40:55.111Z,79.60
2023-01-21T13:43:46.363Z,80.25
2023-01-21T13:46:38.618Z,79.82
2023-01-21T13:49:30.281Z,77.88
2023-01-21T13:52:17.643Z,79.53
2023-01-21T13:55:08.002Z,73.80
2023-01-21T13:57:57.636Z,396.85
2023-01-21T14:00:46.567Z,255.43
2023-01-21T14:03:36.246Z,106.78
2023-01-21T14:06:26.921Z,87.85
2023-01-21T14:09:02.778Z,87.15
2023-01-21T14:11:44.915Z,98.22
2023-01-21T14:14:34.643Z,80.80
2023-01-21T14:17:14.963Z,87.13
2023-01-21T14:20:04.616Z,80.78
2023-01-21T14:22:56.465Z,80.80
2023-01-21T14:25:46.116Z,87.75
2023-01-21T14:28:36.097Z,82.32
2023-01-21T14:31:25.851Z,79.70
2023-01-21T14:34:05.895Z,331.88
2023-01-21T14:36:43.233Z,233.45
2023-01-21T14:39:33.512Z,122.75
2023-01-21T14:42:10.849Z,87.00
2023-01-21T14:45:01.263Z,88.38
2023-01-21T14:47:49.386Z,82.03
2023-01-21T14:50:38.979Z,81.93
2023-01-21T14:53:13.188Z,92.03
2023-01-21T14:55:43.626Z,81.00
2023-01-21T14:58:28.652Z,94.82
2023-01-21T15:00:59.428Z,97.22
2023-01-21T15:03:31.647Z,95.40
2023-01-21T15:06:06.489Z,93.63
2023-01-21T15:08:46.135Z,94.35
2023-01-21T15:11:25.019Z,95.65
2023-01-21T15:14:15.115Z,91.50
2023-01-21T15:16:46.941Z,125.32
2023-01-21T15:19:22.925Z,140.50
2023-01-21T15:22:11.481Z,121.85
2023-01-21T15:24:43.246Z,101.97
2023-01-21T15:27:34.497Z,92.63
2023-01-21T15:30:24.468Z,91.15
2023-01-21T15:32:54.832Z,100.30
2023-01-21T15:35:35.842Z,93.82
2023-01-21T15:38:16.332Z,97.70
2023-01-21T15:40:53.065Z,100.40
2023-01-21T15:43:28.621Z,102.43
2023-01-21T15:46:18.422Z,105.13
2023-01-21T15:49:08.712Z,98.20
2023-01-21T15:51:58.352Z,99.68
2023-01-21T15:54:33.272Z,101.90
2023-01-21T15:57:22.868Z,101.20
2023-01-21T16:00:10.029Z,105.95
2023-01-21T16:02:47.528Z,111.55
2023-01-21T16:05:37.943Z,107.20
2023-01-21T16:08:27.704Z,147.45
2023-01-21T16:11:17.975Z,361.92
2023-01-21T16:13:59.936Z,131.20
2023-01-21T16:16:49.783Z,114.25
2023-01-21T16:19:23.172Z,96.15
2023-01-21T16:21:56.141Z,102.07
2023-01-21T16:24:28.844Z,100.22
2023-01-21T16:27:18.773Z,103.13
2023-01-21T16:29:49.008Z,103.10
2023-01-21T16:32:20.792Z,91.75
2023-01-21T16:34:51.165Z,93.07
2023-01-21T16:37:32.086Z,107.75
2023-01-21T16:40:40.262Z,110.05
2023-01-21T16:43:21.297Z,104.20
2023-01-21T16:45:54.337Z,99.38
2023-01-21T16:48:28.791Z,104.95
2023-01-21T16:50:59.508Z,109.78
2023-01-21T16:53:30.244Z,106.82
2023-01-21T16:56:01.219Z,113.68
2023-01-21T16:58:34.119Z,111.43
2023-01-21T17:01:08.226Z,109.32
2023-01-21T17:03:38.765Z,113.60
2023-01-21T17:06:13.087Z,110.85
2023-01-21T17:08:43.740Z,107.72
2023-01-21T17:11:14.575Z,122.65
2023-01-21T17:13:45.420Z,112.57
2023-01-21T17:16:21.398Z,447.35
2023-01-21T17:18:53.711Z,125.97
2023-01-21T17:21:41.528Z,110.95
2023-01-21T17:24:19.939Z,112.18
2023-01-21T17:26:55.716Z,110.18
2023-01-21T17:29:30.376Z,111.00
2023-01-21T17:32:07.581Z,117.93
2023-01-21T17:34:38.980Z,112.70
2023-01-21T17:37:28.634Z,121.60
2023-01-21T17:39:59.660Z,114.82
2023-01-21T17:42:34.575Z,115.55
2023-01-21T17:45:09.905Z,121.72
2023-01-21T17:48:00.698Z,108.53
2023-01-21T17:50:32.999Z,110.13
2023-01-21T17:53:04.990Z,112.30
2023-01-21T17:55:36.470Z,109.60
2023-01-21T17:58:08.788Z,120.15
2023-01-21T18:00:48.462Z,123.95
2023-01-21T18:03:18.785Z,121.40
2023-01-21T18:05:48.931Z,114.45
2023-01-21T18:08:20.036Z,113.88
2023-01-21T18:10:50.450Z,107.80
2023-01-21T18:13:21.598Z,107.90
2023-01-21T18:15:53.166Z,109.82
2023-01-21T18:18:31.046Z,115.55
2023-01-21T18:21:01.131Z,110.07
2023-01-21T18:23:31.929Z,109.20
2023-01-21T18:26:02.435Z,112.45
2023-01-21T18:28:35.510Z,116.93
2023-01-21T18:31:06.480Z,108.95
2023-01-21T18:33:37.156Z,117.15
2023-01-21T18:36:08.019Z,112.75
2023-01-21T18:38:39.507Z,113.50
2023-01-21T18:41:11.326Z,111.57
2023-01-21T18:43:43.382Z,114.10
2023-01-21T18:46:14.796Z,113.80
2023-01-21T18:48:45.168Z,121.82
2023-01-21T18:51:16.229Z,114.18
2023-01-21T18:53:46.499Z,116.20
2023-01-21T18:56:18.790Z,124.55
2023-01-21T18:58:48.995Z,115.85
2023-01-21T19:01:23.372Z,107.53
2023-01-21T19:03:56.438Z,110.22
2023-01-21T19:06:27.103Z,106.53
2023-01-21T19:08:57.193Z,107.85
2023-01-21T19:11:27.324Z,105.65
2023-01-21T19:13:57.392Z,104.28
2023-01-21T19:16:28.149Z,109.90
2023-01-21T19:18:59.428Z,106.57
2023-01-21T19:21:29.793Z,107.53
2023-01-21T19:23:59.959Z,98.32
2023-01-21T19:26:30.302Z,100.38
2023-01-21T19:29:00.773Z,99.90
2023-01-21T19:31:31.017Z,105.28
2023-01-21T19:34:01.533Z,113.72
2023-01-21T19:36:31.713Z,106.90
2023-01-21T19:39:03.287Z,104.53
2023-01-21T19:41:33.984Z,101.63
2023-01-21T19:44:04.162Z,103.07
2023-01-21T19:46:34.872Z,112.22
2023-01-21T19:49:09.452Z,112.15
2023-01-21T19:51:40.633Z,109.93
2023-01-21T19:54:11.294Z,107.80
2023-01-21T19:56:41.519Z,114.13
2023-01-21T19:59:15.739Z,117.05
2023-01-21T20:01:46.032Z,117.55
2023-01-21T20:04:16.890Z,112.20
2023-01-21T20:06:47.939Z,108.38
2023-01-21T20:09:19.203Z,109.28
2023-01-21T20:11:49.791Z,114.85
2023-01-21T20:14:19.865Z,117.72
2023-01-21T20:16:53.320Z,110.00
2023-01-21T20:19:24.536Z,107.50
2023-01-21T20:22:02.020Z,107.10
2023-01-21T20:24:35.488Z,105.97
2023-01-21T20:27:09.655Z,107.38
2023-01-21T20:29:49.573Z,115.97
2023-01-21T20:32:25.586Z,115.22
2023-01-21T20:34:55.647Z,113.95
2023-01-21T20:37:25.645Z,112.13
2023-01-21T20:39:55.658Z,111.10
2023-01-21T20:42:27.276Z,111.25
2023-01-21T20:44:57.426Z,111.68
2023-01-21T20:47:38.081Z,104.88
2023-01-21T20:50:16.859Z,107.93
2023-01-21T20:52:47.292Z,110.10
2023-01-21T20:55:21.152Z,102.28
2023-01-21T20:57:51.574Z,108.53
2023-01-21T21:00:23.848Z,115.05
2023-01-21T21:02:59.143Z,107.28
2023-01-21T21:05:30.035Z,109.25
2023-01-21T21:08:01.580Z,119.47
2023-01-21T21:10:35.989Z,104.47
2023-01-21T21:13:06.868Z,118.78
2023-01-21T21:15:38.106Z,101.75
2023-01-21T21:18:08.427Z,109.05
2023-01-21T21:20:40.309Z,102.55
2023-01-21T21:23:12.336Z,111.05
2023-01-21T21:25:49.761Z,103.30
2023-01-21T21:28:20.673Z,106.15
2023-01-21T21:30:51.072Z,108.90
2023-01-21T21:33:22.151Z,111.22
2023-01-21T21:35:52.835Z,112.20
2023-01-21T21:38:27.695Z,109.07
2023-01-21T21:41:17.617Z,111.03
2023-01-21T21:43:47.795Z,100.75
2023-01-21T21:46:38.101Z,96.47
2023-01-21T21:49:08.533Z,101.28
2023-01-21T21:51:39.615Z,101.00
2023-01-21T21:54:14.998Z,97.30
2023-01-21T21:56:45.287Z,104.20
2023-01-21T21:59:16.225Z,102.57
2023-01-21T22:01:47.084Z,97.78
2023-01-21T22:04:17.239Z,98.30
2023-01-21T22:06:47.652Z,103.45
2023-01-21T22:09:18.486Z,104.88
2023-01-21T22:11:48.983Z,100.88
2023-01-21T22:14:19.561Z,102.78
2023-01-21T22:16:52.739Z,105.28
2023-01-21T22:19:22.843Z,102.05
2023-01-21T22:21:52.866Z,101.82
2023-01-21T22:24:23.010Z,109.68
2023-01-21T22:26:53.471Z,108.72
2023-01-21T22:29:24.070Z,100.13
2023-01-21T22:31:54.574Z,104.28
2023-01-21T22:34:24.715Z,96.95
2023-01-21T22:36:55.183Z,93.10
2023-01-21T22:39:25.774Z,96.72
2023-01-21T22:41:56.950Z,110.65
2023-01-21T22:44:28.350Z,102.32
2023-01-21T22:46:59.131Z,103.18
2023-01-21T22:49:29.939Z,109.35
2023-01-21T22:52:00.218Z,101.65
2023-01-21T22:54:30.446Z,95.90
2023-01-21T22:57:00.967Z,97.20
2023-01-21T22:59:31.111Z,104.90
2023-01-21T23:02:02.053Z,117.05
2023-01-21T23:04:32.365Z,119.10
2023-01-21T23:07:02.897Z,110.03
2023-01-21T23:09:32.984Z,101.15
2023-01-21T23:12:03.489Z,107.90
2023-01-21T23:14:33.989Z,110.03
2023-01-21T23:17:04.423Z,106.53
2023-01-21T23:19:35.062Z,108.38
2023-01-21T23:22:05.912Z,105.88
2023-01-21T23:24:37.664Z,119.70
2023-01-21T23:27:07.994Z,151.05
2023-01-21T23:29:39.208Z,164.07
2023-01-21T23:32:10.021Z,137.07
2023-01-21T23:34:40.574Z,119.85
2023-01-21T23:37:11.736Z,110.75
2023-01-21T23:39:42.521Z,115.22
2023-01-21T23:42:13.666Z,119.15
2023-01-21T23:44:43.872Z,110.18
2023-01-21T23:47:14.072Z,124.57
2023-01-21T23:49:44.558Z,125.18
2023-01-21T23:52:15.457Z,137.23
2023-01-21T23:54:46.602Z,138.25
2023-01-21T23:57:16.707Z,138.98
2023-01-21T23:59:47.107Z,142.18
